John C. Munro Hamilton International Airport
CYHM : now visible

Airfield :











YOU CAN JOIN US ON...

 
LOGIN :

Register | Disclaimer

   EN    FR    IT 

 









Legend :    VFR   Marginal VFR   IFR   Intensive IFR   Very Intensive IFR
Visi :
Ceiling :
>= 8 km
>= 3000ft
5 to 8 km
1000 to 3000 ft
1500m to 5 km
500 to 1000 ft
800 to 1500m
200 to 500 ft
< 800m
< 200 ft
Symbols :   Thunderstorms  Fog  Heavy snow  Heavy precipitations  Wind > 20 kt






- Airport Elevation : 780 ft
- IATA code : YHM


CYHM - John C. Munro Hamilton International

CURRENT METAR :
  • 280500Z 18006KT 15SM FEW050 BKN250 21/16 A3003 RMK SC1CI7 SC TR SLP169 DENSITY ALT 1500FT

EXPIRED METARs :
  • 280400Z 17007KT 15SM FEW057 FEW120 BKN250 21/16 A3004 RMK SC1AC1CI4 SLP170 DENSITY ALT 1600FT
  • 280300Z 06004KT 15SM SCT060 20/16 A3003 RMK SC3 SLP168 DENSITY ALT 1500FT

TAF TAF CYHM
Valid from the 28 at 00:00 until the 29 at 00:00 UTC


272338Z 2800/2824 18006KT P6SM SCT120 BKN250
FM280900 20010KT P6SM SCT060 BKN150 OVC220
TEMPO 2809/2814 P6SM VCSH BKN050 OVC120
FM281400 19012KT P6SM BKN050 OVC120
TEMPO 2814/2818 P6SM -SHRA
FM281800 08008KT P6SM -SHRA SCT012 OVC025
TEMPO 2818/2824 4SM -SHRA BR BKN008 OVC015 RMK NXT FCST BY 280600Z
CZYZ FIR / North America



MET'MAP, your aeronautical weather chart ! - Copyright ORBIFLY December 2007 - Disclaimer

ORBIFLY MET'MAP TEAM :

Programming & Development : Alexandra Zaïnal
Concept & original design : Baudouin d'Aumeries
Assistance for programming : Marc-Olivier Méhu
Technical & hardware support : Manuel Goepfert

Contact : metmap@orbifly.com




SOURCES & CREDITS :

   NOAA       Earth
Advisory